sensor_id;sensor_type;location;lat;lon;timestamp;pressure;altitude;pressure_sealevel;temperature;humidity
49297;BME280;35163;48.878;18.040;2024-03-17T00:02:22;98676.63;;;12.97;63.03
49297;BME280;35163;48.878;18.040;2024-03-17T00:04:48;98674.97;;;12.96;63.77
49297;BME280;35163;48.878;18.040;2024-03-17T00:07:14;98672.44;;;12.94;64.11
49297;BME280;35163;48.878;18.040;2024-03-17T00:09:40;98673.44;;;12.90;63.89
49297;BME280;35163;48.878;18.040;2024-03-17T00:12:07;98675.16;;;12.90;62.59
49297;BME280;35163;48.878;18.040;2024-03-17T00:14:33;98685.66;;;12.86;62.42
49297;BME280;35163;48.878;18.040;2024-03-17T00:17:00;98685.78;;;12.83;62.07
49297;BME280;35163;48.878;18.040;2024-03-17T00:19:26;98684.09;;;12.82;62.76
49297;BME280;35163;48.878;18.040;2024-03-17T00:21:52;98693.75;;;12.79;63.08
49297;BME280;35163;48.878;18.040;2024-03-17T00:24:19;98695.47;;;12.78;63.59
49297;BME280;35163;48.878;18.040;2024-03-17T00:26:48;98699.00;;;12.77;63.90
49297;BME280;35163;48.878;18.040;2024-03-17T00:29:14;98702.53;;;12.74;64.11
49297;BME280;35163;48.878;18.040;2024-03-17T00:31:41;98710.44;;;12.71;64.16
49297;BME280;35163;48.878;18.040;2024-03-17T00:34:07;98714.88;;;12.68;63.87
49297;BME280;35163;48.878;18.040;2024-03-17T00:36:32;98715.78;;;12.67;62.90
49297;BME280;35163;48.878;18.040;2024-03-17T00:38:58;98726.28;;;12.63;62.79
49297;BME280;35163;48.878;18.040;2024-03-17T00:41:24;98715.16;;;12.60;61.36
49297;BME280;35163;48.878;18.040;2024-03-17T00:43:50;98727.28;;;12.59;61.22
49297;BME280;35163;48.878;18.040;2024-03-17T00:46:21;98723.00;;;12.58;60.66
49297;BME280;35163;48.878;18.040;2024-03-17T00:48:48;98720.41;;;12.58;59.93
49297;BME280;35163;48.878;18.040;2024-03-17T00:51:14;98717.13;;;12.53;60.16
49297;BME280;35163;48.878;18.040;2024-03-17T00:53:40;98726.63;;;12.52;60.47
49297;BME280;35163;48.878;18.040;2024-03-17T00:56:05;98728.44;;;12.50;60.34
49297;BME280;35163;48.878;18.040;2024-03-17T00:58:31;98733.69;;;12.49;60.73
49297;BME280;35163;48.878;18.040;2024-03-17T01:00:57;98722.44;;;12.48;60.58
49297;BME280;35163;48.878;18.040;2024-03-17T01:03:23;98738.97;;;12.46;60.38
49297;BME280;35163;48.878;18.040;2024-03-17T01:05:49;98739.91;;;12.43;60.18
49297;BME280;35163;48.878;18.040;2024-03-17T01:08:18;98726.13;;;12.43;59.95
49297;BME280;35163;48.878;18.040;2024-03-17T01:10:47;98732.19;;;12.42;60.62
49297;BME280;35163;48.878;18.040;2024-03-17T01:13:15;98719.31;;;12.38;60.79
49297;BME280;35163;48.878;18.040;2024-03-17T01:15:41;98721.97;;;12.37;60.51
49297;BME280;35163;48.878;18.040;2024-03-17T01:18:07;98721.22;;;12.33;61.17
49297;BME280;35163;48.878;18.040;2024-03-17T01:20:35;98709.19;;;12.32;60.85
49297;BME280;35163;48.878;18.040;2024-03-17T01:23:01;98718.81;;;12.29;59.83
49297;BME280;35163;48.878;18.040;2024-03-17T01:25:27;98717.13;;;12.26;59.59
49297;BME280;35163;48.878;18.040;2024-03-17T01:27:54;98718.16;;;12.22;59.56
49297;BME280;35163;48.878;18.040;2024-03-17T01:30:20;98712.97;;;12.22;58.76
49297;BME280;35163;48.878;18.040;2024-03-17T01:32:46;98711.44;;;12.16;56.54
49297;BME280;35163;48.878;18.040;2024-03-17T01:35:12;98715.84;;;12.12;55.42
49297;BME280;35163;48.878;18.040;2024-03-17T01:37:38;98723.81;;;12.06;52.84
49297;BME280;35163;48.878;18.040;2024-03-17T01:40:04;98729.09;;;12.03;52.84
49297;BME280;35163;48.878;18.040;2024-03-17T01:42:33;98719.03;;;11.94;51.68
49297;BME280;35163;48.878;18.040;2024-03-17T01:44:59;98727.75;;;11.91;49.72
49297;BME280;35163;48.878;18.040;2024-03-17T01:47:25;98726.84;;;11.92;49.64
49297;BME280;35163;48.878;18.040;2024-03-17T01:49:51;98737.25;;;11.90;48.64
49297;BME280;35163;48.878;18.040;2024-03-17T01:52:19;98738.28;;;11.85;48.31
49297;BME280;35163;48.878;18.040;2024-03-17T01:54:45;98736.66;;;11.82;47.81
49297;BME280;35163;48.878;18.040;2024-03-17T01:57:12;98738.44;;;11.80;47.53
49297;BME280;35163;48.878;18.040;2024-03-17T01:59:39;98749.66;;;11.81;47.34
49297;BME280;35163;48.878;18.040;2024-03-17T02:02:04;98754.25;;;11.72;47.51
49297;BME280;35163;48.878;18.040;2024-03-17T02:04:31;98764.66;;;11.71;47.81
49297;BME280;35163;48.878;18.040;2024-03-17T02:06:57;98763.00;;;11.68;47.89
49297;BME280;35163;48.878;18.040;2024-03-17T02:09:22;98764.91;;;11.61;47.21
49297;BME280;35163;48.878;18.040;2024-03-17T02:11:48;98762.44;;;11.58;47.48
49297;BME280;35163;48.878;18.040;2024-03-17T02:14:13;98747.91;;;11.52;47.74
49297;BME280;35163;48.878;18.040;2024-03-17T02:16:40;98758.47;;;11.46;47.60
49297;BME280;35163;48.878;18.040;2024-03-17T02:19:06;98753.38;;;11.43;47.96
49297;BME280;35163;48.878;18.040;2024-03-17T02:21:32;98757.09;;;11.34;48.20
49297;BME280;35163;48.878;18.040;2024-03-17T02:23:57;98766.72;;;11.29;48.46
49297;BME280;35163;48.878;18.040;2024-03-17T02:26:25;98761.75;;;11.23;48.53
49297;BME280;35163;48.878;18.040;2024-03-17T02:28:51;98766.16;;;11.19;48.47
49297;BME280;35163;48.878;18.040;2024-03-17T02:31:17;98767.25;;;11.10;49.13
49297;BME280;35163;48.878;18.040;2024-03-17T02:33:43;98768.16;;;11.09;49.10
49297;BME280;35163;48.878;18.040;2024-03-17T02:36:10;98772.63;;;11.04;49.17
49297;BME280;35163;48.878;18.040;2024-03-17T02:38:39;98764.09;;;11.00;49.07
49297;BME280;35163;48.878;18.040;2024-03-17T02:41:23;98757.34;;;10.94;49.16
49297;BME280;35163;48.878;18.040;2024-03-17T02:43:49;98758.28;;;10.92;49.48
49297;BME280;35163;48.878;18.040;2024-03-17T02:46:16;98766.22;;;10.84;49.88
49297;BME280;35163;48.878;18.040;2024-03-17T02:48:50;98765.31;;;10.87;50.05
49297;BME280;35163;48.878;18.040;2024-03-17T02:51:18;98780.06;;;10.83;50.51
49297;BME280;35163;48.878;18.040;2024-03-17T02:53:45;98771.53;;;10.79;50.99
49297;BME280;35163;48.878;18.040;2024-03-17T02:56:12;98769.00;;;10.78;50.91
49297;BME280;35163;48.878;18.040;2024-03-17T02:58:39;98769.03;;;10.76;51.53
49297;BME280;35163;48.878;18.040;2024-03-17T03:01:05;98765.69;;;10.73;51.52
49297;BME280;35163;48.878;18.040;2024-03-17T03:03:35;98770.03;;;10.71;51.31
49297;BME280;35163;48.878;18.040;2024-03-17T03:06:01;98780.47;;;10.67;51.74
49297;BME280;35163;48.878;18.040;2024-03-17T03:08:32;98780.47;;;10.67;51.15
49297;BME280;35163;48.878;18.040;2024-03-17T03:10:59;98780.56;;;10.64;51.49
49297;BME280;35163;48.878;18.040;2024-03-17T03:13:25;98784.09;;;10.60;51.42
49297;BME280;35163;48.878;18.040;2024-03-17T03:15:51;98794.44;;;10.60;51.11
49297;BME280;35163;48.878;18.040;2024-03-17T03:18:16;98791.03;;;10.58;50.96
49297;BME280;35163;48.878;18.040;2024-03-17T03:20:42;98788.53;;;10.55;50.94
49297;BME280;35163;48.878;18.040;2024-03-17T03:23:09;98790.31;;;10.53;51.13
49297;BME280;35163;48.878;18.040;2024-03-17T03:25:35;98787.63;;;10.56;51.27
49297;BME280;35163;48.878;18.040;2024-03-17T03:28:00;98793.69;;;10.55;50.69
49297;BME280;35163;48.878;18.040;2024-03-17T03:30:27;98797.22;;;10.52;50.70
49297;BME280;35163;48.878;18.040;2024-03-17T03:32:53;98803.31;;;10.50;50.90
49297;BME280;35163;48.878;18.040;2024-03-17T03:35:18;98809.44;;;10.47;51.14
49297;BME280;35163;48.878;18.040;2024-03-17T03:37:45;98798.19;;;10.47;50.97
49297;BME280;35163;48.878;18.040;2024-03-17T03:40:12;98810.31;;;10.44;51.14
49297;BME280;35163;48.878;18.040;2024-03-17T03:42:42;98810.31;;;10.44;51.13
49297;BME280;35163;48.878;18.040;2024-03-17T03:45:09;98812.97;;;10.41;51.37
49297;BME280;35163;48.878;18.040;2024-03-17T03:47:41;98818.22;;;10.38;51.07
49297;BME280;35163;48.878;18.040;2024-03-17T03:50:08;98817.41;;;10.36;51.04
49297;BME280;35163;48.878;18.040;2024-03-17T03:52:37;98820.88;;;10.35;51.12
49297;BME280;35163;48.878;18.040;2024-03-17T03:55:07;98826.09;;;10.33;51.47
49297;BME280;35163;48.878;18.040;2024-03-17T03:57:38;98816.69;;;10.29;51.58
49297;BME280;35163;48.878;18.040;2024-03-17T04:00:04;98823.56;;;10.30;51.44
49297;BME280;35163;48.878;18.040;2024-03-17T04:02:48;98829.66;;;10.28;51.78
49297;BME280;35163;48.878;18.040;2024-03-17T04:05:15;98834.88;;;10.26;51.71
49297;BME280;35163;48.878;18.040;2024-03-17T04:07:41;98823.72;;;10.24;51.78
49297;BME280;35163;48.878;18.040;2024-03-17T04:10:09;98824.66;;;10.21;51.24
49297;BME280;35163;48.878;18.040;2024-03-17T04:12:35;98829.03;;;10.18;51.02
49297;BME280;35163;48.878;18.040;2024-03-17T04:15:01;98826.50;;;10.16;51.19
49297;BME280;35163;48.878;18.040;2024-03-17T04:17:28;98829.97;;;10.14;51.58
49297;BME280;35163;48.878;18.040;2024-03-17T04:19:54;98830.09;;;10.09;51.55
49297;BME280;35163;48.878;18.040;2024-03-17T04:22:21;98828.44;;;10.05;51.72
49297;BME280;35163;48.878;18.040;2024-03-17T04:24:50;98825.91;;;10.03;51.34
49297;BME280;35163;48.878;18.040;2024-03-17T04:27:19;98832.91;;;9.98;51.92
49297;BME280;35163;48.878;18.040;2024-03-17T04:29:56;98839.03;;;9.94;52.21
49297;BME280;35163;48.878;18.040;2024-03-17T04:32:23;98833.97;;;9.89;51.96
49297;BME280;35163;48.878;18.040;2024-03-17T04:34:49;98829.69;;;9.88;51.83
49297;BME280;35163;48.878;18.040;2024-03-17T04:37:15;98832.34;;;9.85;52.28
49297;BME280;35163;48.878;18.040;2024-03-17T04:39:41;98833.28;;;9.81;51.92
49297;BME280;35163;48.878;18.040;2024-03-17T04:42:15;98840.25;;;9.77;52.11
49297;BME280;35163;48.878;18.040;2024-03-17T04:44:44;98838.59;;;9.75;52.06
49297;BME280;35163;48.878;18.040;2024-03-17T04:47:11;98837.84;;;9.69;52.28
49297;BME280;35163;48.878;18.040;2024-03-17T04:49:40;98843.91;;;9.67;52.28
49297;BME280;35163;48.878;18.040;2024-03-17T04:52:07;98848.31;;;9.63;52.29
49297;BME280;35163;48.878;18.040;2024-03-17T04:54:33;98852.69;;;9.59;51.76
49297;BME280;35163;48.878;18.040;2024-03-17T04:56:59;98855.31;;;9.55;52.15
49297;BME280;35163;48.878;18.040;2024-03-17T04:59:25;98852.84;;;9.50;52.56
49297;BME280;35163;48.878;18.040;2024-03-17T05:01:51;98856.47;;;9.49;52.33
49297;BME280;35163;48.878;18.040;2024-03-17T05:04:17;98856.31;;;9.49;52.33
49297;BME280;35163;48.878;18.040;2024-03-17T05:06:43;98865.88;;;9.44;52.29
49297;BME280;35163;48.878;18.040;2024-03-17T05:09:13;98865.97;;;9.39;52.31
49297;BME280;35163;48.878;18.040;2024-03-17T05:11:39;98875.44;;;9.39;52.71
49297;BME280;35163;48.878;18.040;2024-03-17T05:14:05;98878.13;;;9.34;52.21
49297;BME280;35163;48.878;18.040;2024-03-17T05:16:30;98877.25;;;9.33;52.29
49297;BME280;35163;48.878;18.040;2024-03-17T05:18:56;98881.56;;;9.33;52.36
49297;BME280;35163;48.878;18.040;2024-03-17T05:21:21;98891.06;;;9.31;53.02
49297;BME280;35163;48.878;18.040;2024-03-17T05:23:51;98886.84;;;9.27;52.33
49297;BME280;35163;48.878;18.040;2024-03-17T05:26:17;98883.44;;;9.24;52.70
49297;BME280;35163;48.878;18.040;2024-03-17T05:28:43;98888.63;;;9.23;52.93
49297;BME280;35163;48.878;18.040;2024-03-17T05:31:10;98887.75;;;9.24;54.12
49297;BME280;35163;48.878;18.040;2024-03-17T05:33:35;98880.03;;;9.22;53.78
49297;BME280;35163;48.878;18.040;2024-03-17T05:36:02;98884.38;;;9.20;53.10
49297;BME280;35163;48.878;18.040;2024-03-17T05:38:29;98878.41;;;9.18;52.96
49297;BME280;35163;48.878;18.040;2024-03-17T05:40:59;98881.84;;;9.17;53.30
49297;BME280;35163;48.878;18.040;2024-03-17T05:43:27;98881.88;;;9.16;53.40
49297;BME280;35163;48.878;18.040;2024-03-17T05:45:56;98884.47;;;9.16;53.17
49297;BME280;35163;48.878;18.040;2024-03-17T05:48:22;98887.06;;;9.14;53.92
49297;BME280;35163;48.878;18.040;2024-03-17T05:50:50;98895.66;;;9.15;53.64
49297;BME280;35163;48.878;18.040;2024-03-17T05:53:17;98898.28;;;9.13;53.92
49297;BME280;35163;48.878;18.040;2024-03-17T05:55:44;98906.84;;;9.14;54.09
49297;BME280;35163;48.878;18.040;2024-03-17T05:58:10;98907.78;;;9.11;53.96
49297;BME280;35163;48.878;18.040;2024-03-17T06:00:36;98916.41;;;9.10;53.98
49297;BME280;35163;48.878;18.040;2024-03-17T06:03:03;98912.03;;;9.12;54.68
49297;BME280;35163;48.878;18.040;2024-03-17T06:05:32;98916.38;;;9.11;54.74
49297;BME280;35163;48.878;18.040;2024-03-17T06:08:01;98913.69;;;9.16;54.89
49297;BME280;35163;48.878;18.040;2024-03-17T06:10:32;98911.94;;;9.18;55.03
49297;BME280;35163;48.878;18.040;2024-03-17T06:12:58;98909.22;;;9.26;54.96
49297;BME280;35163;48.878;18.040;2024-03-17T06:15:24;98909.06;;;9.35;54.41
49297;BME280;35163;48.878;18.040;2024-03-17T06:17:51;98919.13;;;9.48;54.87
49297;BME280;35163;48.878;18.040;2024-03-17T06:20:21;98920.59;;;9.62;54.13
49297;BME280;35163;48.878;18.040;2024-03-17T06:22:47;98919.50;;;9.75;54.38
49297;BME280;35163;48.878;18.040;2024-03-17T06:25:13;98923.56;;;9.87;54.33
49297;BME280;35163;48.878;18.040;2024-03-17T06:27:39;98925.00;;;10.01;54.06
49297;BME280;35163;48.878;18.040;2024-03-17T06:30:05;98923.94;;;10.11;52.60
49297;BME280;35163;48.878;18.040;2024-03-17T06:32:32;98931.41;;;10.24;52.09
49297;BME280;35163;48.878;18.040;2024-03-17T06:34:59;98935.47;;;10.34;52.24
49297;BME280;35163;48.878;18.040;2024-03-17T06:37:26;98932.66;;;10.45;51.20
49297;BME280;35163;48.878;18.040;2024-03-17T06:39:52;98932.50;;;10.53;51.41
49297;BME280;35163;48.878;18.040;2024-03-17T06:42:17;98943.47;;;10.64;50.48
49297;BME280;35163;48.878;18.040;2024-03-17T06:44:43;98945.97;;;10.67;50.44
49297;BME280;35163;48.878;18.040;2024-03-17T06:47:08;98951.81;;;10.76;51.00
49297;BME280;35163;48.878;18.040;2024-03-17T06:49:34;98944.72;;;10.84;49.97
49297;BME280;35163;48.878;18.040;2024-03-17T06:52:00;98947.16;;;10.90;49.31
49297;BME280;35163;48.878;18.040;2024-03-17T06:54:26;98952.22;;;10.95;47.81
49297;BME280;35163;48.878;18.040;2024-03-17T06:56:52;98952.19;;;10.97;46.37
49297;BME280;35163;48.878;18.040;2024-03-17T06:59:18;98953.06;;;10.96;46.32
49297;BME280;35163;48.878;18.040;2024-03-17T07:01:43;98955.59;;;10.97;45.94
49297;BME280;35163;48.878;18.040;2024-03-17T07:04:10;98955.59;;;10.99;45.84
49297;BME280;35163;48.878;18.040;2024-03-17T07:06:36;98954.78;;;10.97;45.10
49297;BME280;35163;48.878;18.040;2024-03-17T07:09:02;98960.78;;;10.97;44.95
49297;BME280;35163;48.878;18.040;2024-03-17T07:11:28;98967.72;;;10.97;44.55
49297;BME280;35163;48.878;18.040;2024-03-17T07:13:53;98966.88;;;10.96;45.23
49297;BME280;35163;48.878;18.040;2024-03-17T07:16:19;98978.00;;;11.00;45.10
49297;BME280;35163;48.878;18.040;2024-03-17T07:18:47;98974.59;;;10.98;44.05
49297;BME280;35163;48.878;18.040;2024-03-17T07:21:12;98978.91;;;10.97;43.96
49297;BME280;35163;48.878;18.040;2024-03-17T07:23:38;98976.44;;;10.92;44.98
49297;BME280;35163;48.878;18.040;2024-03-17T07:26:04;98979.84;;;10.94;45.98
49297;BME280;35163;48.878;18.040;2024-03-17T07:28:30;98983.28;;;10.95;44.80
49297;BME280;35163;48.878;18.040;2024-03-17T07:30:59;98986.69;;;10.96;44.84
49297;BME280;35163;48.878;18.040;2024-03-17T07:33:28;98985.84;;;10.97;43.92
49297;BME280;35163;48.878;18.040;2024-03-17T07:35:55;98982.38;;;10.96;43.42
49297;BME280;35163;48.878;18.040;2024-03-17T07:38:23;98975.47;;;10.97;43.49
49297;BME280;35163;48.878;18.040;2024-03-17T07:41:10;98978.00;;;11.00;43.75
49297;BME280;35163;48.878;18.040;2024-03-17T07:43:37;98972.81;;;11.00;43.09
49297;BME280;35163;48.878;18.040;2024-03-17T07:46:11;98976.22;;;11.02;42.23
49297;BME280;35163;48.878;18.040;2024-03-17T07:48:39;98987.41;;;11.02;42.83
49297;BME280;35163;48.878;18.040;2024-03-17T07:51:07;98985.66;;;11.03;43.49
49297;BME280;35163;48.878;18.040;2024-03-17T07:53:37;98982.97;;;11.09;44.06
49297;BME280;35163;48.878;18.040;2024-03-17T07:56:04;98984.66;;;11.10;44.24
49297;BME280;35163;48.878;18.040;2024-03-17T07:58:33;98981.22;;;11.08;43.68
49297;BME280;35163;48.878;18.040;2024-03-17T08:01:00;98975.19;;;11.09;43.75
49297;BME280;35163;48.878;18.040;2024-03-17T08:03:27;98980.38;;;11.09;43.06
49297;BME280;35163;48.878;18.040;2024-03-17T08:05:53;98976.78;;;11.13;43.81
49297;BME280;35163;48.878;18.040;2024-03-17T08:08:19;98973.34;;;11.13;43.77
49297;BME280;35163;48.878;18.040;2024-03-17T08:10:45;98970.72;;;11.14;43.59
49297;BME280;35163;48.878;18.040;2024-03-17T08:13:17;98961.19;;;11.16;43.61
49297;BME280;35163;48.878;18.040;2024-03-17T08:15:44;98970.66;;;11.17;44.00
49297;BME280;35163;48.878;18.040;2024-03-17T08:18:14;98973.19;;;11.21;44.46
49297;BME280;35163;48.878;18.040;2024-03-17T08:20:40;98961.84;;;11.25;44.70
49297;BME280;35163;48.878;18.040;2024-03-17T08:23:07;98960.06;;;11.27;43.99
49297;BME280;35163;48.878;18.040;2024-03-17T08:25:33;98965.09;;;11.33;43.28
49297;BME280;35163;48.878;18.040;2024-03-17T08:28:00;98954.75;;;11.33;42.81
49297;BME280;35163;48.878;18.040;2024-03-17T08:30:26;98951.25;;;11.34;42.41
49297;BME280;35163;48.878;18.040;2024-03-17T08:32:51;98946.81;;;11.39;42.94
49297;BME280;35163;48.878;18.040;2024-03-17T08:35:17;98951.00;;;11.43;42.97
49297;BME280;35163;48.878;18.040;2024-03-17T08:37:43;98942.28;;;11.48;43.12
49297;BME280;35163;48.878;18.040;2024-03-17T08:40:11;98950.84;;;11.50;42.50
49297;BME280;35163;48.878;18.040;2024-03-17T08:42:37;98942.09;;;11.54;42.56
49297;BME280;35163;48.878;18.040;2024-03-17T08:45:03;98942.06;;;11.55;42.67
49297;BME280;35163;48.878;18.040;2024-03-17T08:47:29;98935.00;;;11.61;41.24
49297;BME280;35163;48.878;18.040;2024-03-17T08:49:55;98935.78;;;11.64;41.54
49297;BME280;35163;48.878;18.040;2024-03-17T08:52:21;98931.31;;;11.70;40.92
49297;BME280;35163;48.878;18.040;2024-03-17T08:54:47;98930.41;;;11.72;40.76
49297;BME280;35163;48.878;18.040;2024-03-17T08:57:13;98940.66;;;11.75;41.49
49297;BME280;35163;48.878;18.040;2024-03-17T08:59:39;98949.16;;;11.81;43.76
49297;BME280;35163;48.878;18.040;2024-03-17T09:02:05;98950.81;;;11.83;43.83
49297;BME280;35163;48.878;18.040;2024-03-17T09:04:32;98938.72;;;11.84;43.39
49297;BME280;35163;48.878;18.040;2024-03-17T09:06:57;98946.44;;;11.85;43.86
49297;BME280;35163;48.878;18.040;2024-03-17T09:09:24;98943.03;;;11.83;43.47
49297;BME280;35163;48.878;18.040;2024-03-17T09:11:49;98937.78;;;11.86;43.15
49297;BME280;35163;48.878;18.040;2024-03-17T09:14:16;98942.88;;;11.89;42.73
49297;BME280;35163;48.878;18.040;2024-03-17T09:16:42;98945.41;;;11.91;42.43
49297;BME280;35163;48.878;18.040;2024-03-17T09:19:08;98941.09;;;11.91;43.22
49297;BME280;35163;48.878;18.040;2024-03-17T09:21:34;98937.59;;;11.93;42.36
49297;BME280;35163;48.878;18.040;2024-03-17T09:24:00;98938.41;;;11.95;42.28
49297;BME280;35163;48.878;18.040;2024-03-17T09:26:25;98935.72;;;11.98;40.77
49297;BME280;35163;48.878;18.040;2024-03-17T09:28:51;98941.72;;;12.00;39.76
49297;BME280;35163;48.878;18.040;2024-03-17T09:31:17;98939.94;;;12.00;40.02
49297;BME280;35163;48.878;18.040;2024-03-17T09:33:42;98938.19;;;12.02;39.10
49297;BME280;35163;48.878;18.040;2024-03-17T09:36:09;98938.00;;;12.09;39.46
49297;BME280;35163;48.878;18.040;2024-03-17T09:38:39;98940.50;;;12.13;39.33
49297;BME280;35163;48.878;18.040;2024-03-17T09:41:06;98936.13;;;12.14;38.29
49297;BME280;35163;48.878;18.040;2024-03-17T09:43:33;98929.13;;;12.18;38.62
49297;BME280;35163;48.878;18.040;2024-03-17T09:46:02;98932.53;;;12.20;38.24
49297;BME280;35163;48.878;18.040;2024-03-17T09:48:28;98930.75;;;12.22;38.02
49297;BME280;35163;48.878;18.040;2024-03-17T09:50:59;98928.16;;;12.22;38.56
49297;BME280;35163;48.878;18.040;2024-03-17T09:53:31;98930.75;;;12.22;39.36
49297;BME280;35163;48.878;18.040;2024-03-17T09:55:58;98936.75;;;12.24;40.08
49297;BME280;35163;48.878;18.040;2024-03-17T09:58:24;98921.09;;;12.27;40.74
49297;BME280;35163;48.878;18.040;2024-03-17T10:00:50;98921.88;;;12.29;40.45
49297;BME280;35163;48.878;18.040;2024-03-17T10:03:40;98926.06;;;12.33;40.01
49297;BME280;35163;48.878;18.040;2024-03-17T10:06:07;98927.69;;;12.37;39.66
49297;BME280;35163;48.878;18.040;2024-03-17T10:08:32;98924.19;;;12.38;39.33
49297;BME280;35163;48.878;18.040;2024-03-17T10:10:59;98919.81;;;12.41;39.33
49297;BME280;35163;48.878;18.040;2024-03-17T10:13:25;98921.38;;;12.46;38.70
49297;BME280;35163;48.878;18.040;2024-03-17T10:15:51;98916.94;;;12.50;38.43
49297;BME280;35163;48.878;18.040;2024-03-17T10:18:23;98920.34;;;12.50;37.73
49297;BME280;35163;48.878;18.040;2024-03-17T10:20:49;98911.66;;;12.53;38.23
49297;BME280;35163;48.878;18.040;2024-03-17T10:23:22;98900.31;;;12.56;38.61
49297;BME280;35163;48.878;18.040;2024-03-17T10:25:48;98914.03;;;12.59;38.09
49297;BME280;35163;48.878;18.040;2024-03-17T10:28:15;98897.66;;;12.57;37.14
49297;BME280;35163;48.878;18.040;2024-03-17T10:30:41;98910.63;;;12.57;37.56
49297;BME280;35163;48.878;18.040;2024-03-17T10:33:22;98910.59;;;12.59;37.71
49297;BME280;35163;48.878;18.040;2024-03-17T10:35:48;98906.16;;;12.62;38.23
49297;BME280;35163;48.878;18.040;2024-03-17T10:38:14;98900.09;;;12.63;38.16
49297;BME280;35163;48.878;18.040;2024-03-17T10:40:41;98907.75;;;12.67;38.72
49297;BME280;35163;48.878;18.040;2024-03-17T10:43:07;98888.63;;;12.69;38.74
49297;BME280;35163;48.878;18.040;2024-03-17T10:45:33;98909.25;;;12.74;39.12
49297;BME280;35163;48.878;18.040;2024-03-17T10:48:08;98910.94;;;12.75;38.33
49297;BME280;35163;48.878;18.040;2024-03-17T10:50:38;98906.66;;;12.74;37.94
49297;BME280;35163;48.878;18.040;2024-03-17T10:53:05;98919.66;;;12.74;37.80
49297;BME280;35163;48.878;18.040;2024-03-17T10:55:42;98917.06;;;12.74;37.55
49297;BME280;35163;48.878;18.040;2024-03-17T10:58:33;98913.50;;;12.76;37.21
49297;BME280;35163;48.878;18.040;2024-03-17T11:01:00;98914.25;;;12.80;37.81
49297;BME280;35163;48.878;18.040;2024-03-17T11:03:33;98925.44;;;12.82;36.80
49297;BME280;35163;48.878;18.040;2024-03-17T11:06:01;98921.00;;;12.86;37.02
49297;BME280;35163;48.878;18.040;2024-03-17T11:08:30;98908.84;;;12.86;36.73
49297;BME280;35163;48.878;18.040;2024-03-17T11:10:56;98914.84;;;12.88;37.14
49297;BME280;35163;48.878;18.040;2024-03-17T11:13:24;98915.75;;;12.87;36.17
49297;BME280;35163;48.878;18.040;2024-03-17T11:15:51;98913.03;;;12.91;36.58
49297;BME280;35163;48.878;18.040;2024-03-17T11:20:58;98903.34;;;12.96;36.35
49297;BME280;35163;48.878;18.040;2024-03-17T11:23:30;98918.94;;;12.96;36.24
49297;BME280;35163;48.878;18.040;2024-03-17T11:25:57;98919.75;;;12.96;35.74
49297;BME280;35163;48.878;18.040;2024-03-17T11:36:56;98900.53;;;13.02;35.88
49297;BME280;35163;48.878;18.040;2024-03-17T11:39:48;98896.22;;;13.03;34.85
49297;BME280;35163;48.878;18.040;2024-03-17T11:42:25;98899.66;;;13.03;35.26
49297;BME280;35163;48.878;18.040;2024-03-17T11:44:59;98885.88;;;13.01;35.55
49297;BME280;35163;48.878;18.040;2024-03-17T11:47:39;98895.28;;;13.04;36.35
49297;BME280;35163;48.878;18.040;2024-03-17T11:50:07;98885.66;;;13.07;36.81
49297;BME280;35163;48.878;18.040;2024-03-17T11:52:35;98886.53;;;13.08;36.79
49297;BME280;35163;48.878;18.040;2024-03-17T11:55:01;98870.94;;;13.08;36.35
49297;BME280;35163;48.878;18.040;2024-03-17T11:57:27;98877.75;;;13.10;36.93
49297;BME280;35163;48.878;18.040;2024-03-17T11:59:54;98871.78;;;13.08;35.90
49297;BME280;35163;48.878;18.040;2024-03-17T12:02:29;98867.31;;;13.12;35.87
49297;BME280;35163;48.878;18.040;2024-03-17T12:05:00;98863.78;;;13.15;36.55
49297;BME280;35163;48.878;18.040;2024-03-17T12:07:26;98856.81;;;13.17;36.59
49297;BME280;35163;48.878;18.040;2024-03-17T12:09:54;98840.31;;;13.18;36.50
49297;BME280;35163;48.878;18.040;2024-03-17T12:12:22;98848.84;;;13.21;36.48
49297;BME280;35163;48.878;18.040;2024-03-17T12:14:49;98845.28;;;13.24;36.12
49297;BME280;35163;48.878;18.040;2024-03-17T12:17:20;98838.28;;;13.26;35.85
49297;BME280;35163;48.878;18.040;2024-03-17T12:19:47;98835.56;;;13.29;36.35
49297;BME280;35163;48.878;18.040;2024-03-17T12:24:53;98835.47;;;13.32;36.12
49297;BME280;35163;48.878;18.040;2024-03-17T12:27:21;98827.56;;;13.35;36.12
49297;BME280;35163;48.878;18.040;2024-03-17T12:29:51;98824.06;;;13.36;35.86
49297;BME280;35163;48.878;18.040;2024-03-17T12:32:19;98817.94;;;13.37;35.30
49297;BME280;35163;48.878;18.040;2024-03-17T12:34:50;98823.94;;;13.40;35.22
49297;BME280;35163;48.878;18.040;2024-03-17T12:37:21;98824.81;;;13.40;34.66
49297;BME280;35163;48.878;18.040;2024-03-17T12:39:48;98827.47;;;13.39;34.08
49297;BME280;35163;48.878;18.040;2024-03-17T12:42:15;98835.31;;;13.37;33.93
49297;BME280;35163;48.878;18.040;2024-03-17T12:47:19;98828.50;;;13.33;34.21
49297;BME280;35163;48.878;18.040;2024-03-17T12:49:46;98825.97;;;13.31;34.04
49297;BME280;35163;48.878;18.040;2024-03-17T12:52:26;98818.97;;;13.33;34.64
49297;BME280;35163;48.878;18.040;2024-03-17T12:55:05;98808.47;;;13.36;34.73
49297;BME280;35163;48.878;18.040;2024-03-17T13:00:56;98802.34;;;13.39;34.93
49297;BME280;35163;48.878;18.040;2024-03-17T13:03:33;98796.97;;;13.44;34.25
49297;BME280;35163;48.878;18.040;2024-03-17T13:06:00;98797.75;;;13.46;34.20
49297;BME280;35163;48.878;18.040;2024-03-17T13:08:28;98799.38;;;13.48;34.28
49297;BME280;35163;48.878;18.040;2024-03-17T13:10:54;98794.13;;;13.50;34.32
49297;BME280;35163;48.878;18.040;2024-03-17T13:13:20;98794.03;;;13.53;34.66
49297;BME280;35163;48.878;18.040;2024-03-17T13:15:46;98783.59;;;13.55;34.44